createdAt,value
2019-04-21T00:00:14.893Z,30.30
2019-04-21T00:02:45.432Z,32.40
2019-04-21T00:05:38.528Z,32.67
2019-04-21T00:08:10.854Z,35.00
2019-04-21T00:10:38.501Z,34.33
2019-04-21T00:12:57.408Z,31.35
2019-04-21T00:15:24.459Z,29.75
2019-04-21T00:17:52.731Z,32.73
2019-04-21T00:20:28.930Z,31.93
2019-04-21T00:23:02.821Z,31.40
2019-04-21T00:25:33.930Z,30.85
2019-04-21T00:28:17.015Z,30.50
2019-04-21T00:30:45.587Z,27.13
2019-04-21T00:33:03.318Z,30.25
2019-04-21T00:35:26.493Z,30.35
2019-04-21T00:38:13.164Z,32.38
2019-04-21T00:40:50.412Z,33.67
2019-04-21T00:43:13.662Z,31.73
2019-04-21T00:45:39.004Z,30.65
2019-04-21T00:48:20.669Z,30.52
2019-04-21T00:51:03.417Z,33.10
2019-04-21T00:53:32.138Z,33.35
2019-04-21T00:56:01.511Z,28.35
2019-04-21T00:58:30.418Z,34.25
2019-04-21T01:00:58.903Z,31.65
2019-04-21T01:03:46.069Z,25.50
2019-04-21T01:05:57.646Z,29.77
2019-04-21T01:08:29.768Z,32.58
2019-04-21T01:10:51.218Z,30.90
2019-04-21T01:13:38.798Z,34.20
2019-04-21T01:15:59.195Z,33.70
2019-04-21T01:18:32.590Z,33.55
2019-04-21T01:20:39.486Z,29.07
2019-04-21T01:23:08.543Z,26.40
2019-04-21T01:25:44.867Z,31.82
2019-04-21T01:28:27.020Z,29.75
2019-04-21T01:30:57.310Z,35.83
2019-04-21T01:33:33.508Z,34.78
2019-04-21T01:35:58.330Z,38.00
2019-04-21T01:38:35.713Z,31.40
2019-04-21T01:41:10.008Z,31.45
2019-04-21T01:43:31.513Z,31.95
2019-04-21T01:45:59.658Z,26.02
2019-04-21T01:48:24.558Z,32.73
2019-04-21T01:51:04.370Z,30.15
2019-04-21T01:53:48.308Z,27.65
2019-04-21T01:56:24.489Z,26.25
2019-04-21T01:58:50.400Z,23.00
2019-04-21T02:01:28.369Z,25.48
2019-04-21T02:03:58.543Z,26.60
2019-04-21T02:06:37.795Z,27.05
2019-04-21T02:08:57.724Z,26.93
2019-04-21T02:11:29.983Z,26.93
2019-04-21T02:14:17.491Z,30.08
2019-04-21T02:16:34.297Z,27.13
2019-04-21T02:18:58.565Z,31.52
2019-04-21T02:21:27.639Z,32.95
2019-04-21T02:26:37.719Z,35.70
2019-04-21T02:29:12.468Z,34.90
2019-04-21T02:31:50.411Z,34.70
2019-04-21T02:34:37.412Z,34.43
2019-04-21T02:37:00.484Z,34.48
2019-04-21T02:44:20.068Z,29.55
2019-04-21T02:46:50.504Z,27.00
2019-04-21T02:51:53.688Z,24.43
2019-04-21T02:57:06.012Z,24.75
2019-04-21T03:02:04.203Z,29.57
2019-04-21T03:07:25.418Z,31.97
2019-04-21T03:12:20.662Z,33.20
2019-04-21T03:17:44.082Z,37.13
2019-04-21T03:19:59.946Z,34.03
2019-04-21T03:22:25.087Z,34.90
2019-04-21T03:37:48.931Z,28.12
2019-04-21T03:42:49.810Z,31.77
2019-04-21T03:47:53.451Z,31.15
2019-04-21T03:53:00.804Z,34.45
2019-04-21T03:58:17.613Z,32.28
2019-04-21T04:00:50.697Z,27.95
2019-04-21T04:03:35.278Z,33.55
2019-04-21T04:09:06.389Z,31.62
2019-04-21T04:11:21.136Z,22.98
2019-04-21T04:16:10.554Z,32.40
2019-04-21T04:23:49.149Z,32.35
2019-04-21T04:26:17.016Z,32.50
2019-04-21T04:29:04.356Z,33.02
2019-04-21T04:31:25.898Z,33.08
2019-04-21T04:33:57.788Z,33.75
2019-04-21T04:39:17.974Z,33.18
2019-04-21T04:44:17.622Z,21.82
2019-04-21T04:46:57.369Z,27.17
2019-04-21T04:49:10.780Z,34.15
2019-04-21T04:54:31.669Z,33.78
2019-04-21T04:56:38.901Z,34.18
2019-04-21T05:01:40.672Z,32.20
2019-04-21T05:04:10.158Z,31.75
2019-04-21T05:06:47.442Z,33.10
2019-04-21T05:14:13.316Z,31.85
2019-04-21T05:16:55.141Z,25.15
2019-04-21T05:24:02.644Z,29.10
2019-04-21T05:26:25.821Z,30.40
2019-04-21T05:28:56.790Z,31.02
2019-04-21T05:31:47.681Z,30.68
2019-04-21T05:34:20.063Z,26.17
2019-04-21T05:36:56.769Z,23.77
2019-04-21T05:39:24.789Z,27.58
2019-04-21T05:41:50.877Z,28.42
2019-04-21T05:44:42.002Z,28.17
2019-04-21T05:47:15.853Z,26.65
2019-04-21T05:49:42.112Z,27.62
2019-04-21T05:52:04.016Z,26.10
2019-04-21T05:57:10.241Z,23.38
2019-04-21T05:59:43.586Z,24.12
2019-04-21T06:02:24.287Z,24.47
2019-04-21T06:12:21.155Z,33.20
2019-04-21T06:14:55.977Z,31.42
2019-04-21T06:17:25.034Z,34.15
2019-04-21T06:19:57.252Z,32.08
2019-04-21T06:22:19.551Z,27.45
2019-04-21T06:25:21.615Z,31.07
2019-04-21T06:27:29.851Z,31.35
2019-04-21T06:29:55.807Z,33.90
2019-04-21T06:32:45.994Z,41.28
2019-04-21T06:37:43.586Z,33.18
2019-04-21T06:40:15.270Z,35.73
2019-04-21T06:42:34.314Z,31.85
2019-04-21T06:45:07.266Z,31.87
2019-04-21T06:50:07.658Z,28.42
2019-04-21T06:55:12.532Z,26.42
2019-04-21T06:57:40.306Z,25.30
2019-04-21T07:00:10.113Z,26.07
2019-04-21T07:03:06.197Z,25.62
2019-04-21T07:05:07.862Z,25.45
2019-04-21T07:07:43.639Z,27.93
2019-04-21T07:10:10.475Z,29.40
2019-04-21T07:12:43.317Z,31.27
2019-04-21T07:15:14.796Z,29.72
2019-04-21T07:17:38.878Z,28.02
2019-04-21T07:20:12.486Z,32.45
2019-04-21T07:22:44.704Z,29.07
2019-04-21T07:25:18.641Z,30.30
2019-04-21T07:27:48.588Z,31.42
2019-04-21T07:30:22.800Z,29.05
2019-04-21T07:32:49.802Z,25.02
2019-04-21T07:35:17.193Z,32.20
2019-04-21T07:37:49.351Z,29.12
2019-04-21T07:40:09.078Z,28.25
2019-04-21T07:42:46.972Z,30.88
2019-04-21T07:45:13.164Z,28.40
2019-04-21T07:48:14.015Z,31.85
2019-04-21T07:50:35.192Z,28.35
2019-04-21T07:53:08.592Z,28.25
2019-04-21T07:58:03.214Z,28.30
2019-04-21T08:03:07.946Z,26.52
2019-04-21T08:05:42.397Z,27.98
2019-04-21T08:08:02.212Z,32.73
2019-04-21T08:10:39.115Z,24.98
2019-04-21T08:13:10.310Z,31.60
2019-04-21T08:15:39.952Z,29.15
2019-04-21T08:18:13.444Z,30.80
2019-04-21T08:20:34.896Z,27.75
2019-04-21T08:23:13.525Z,34.23
2019-04-21T08:25:50.967Z,33.40
2019-04-21T08:28:11.916Z,32.73
2019-04-21T08:30:42.701Z,30.23
2019-04-21T08:36:11.012Z,36.75
2019-04-21T08:38:15.065Z,35.75
2019-04-21T08:40:45.693Z,34.63
2019-04-21T08:43:21.144Z,34.25
2019-04-21T08:45:46.833Z,31.62
2019-04-21T08:48:17.125Z,31.00
2019-04-21T08:50:53.899Z,33.80
2019-04-21T08:53:20.440Z,36.95
2019-04-21T08:56:04.126Z,38.45
2019-04-21T08:58:34.096Z,34.88
2019-04-21T09:01:22.573Z,33.42
2019-04-21T09:03:56.278Z,36.63
2019-04-21T09:06:40.287Z,30.57
2019-04-21T09:09:01.678Z,31.82
2019-04-21T09:11:24.757Z,31.97
2019-04-21T09:13:57.228Z,33.42
2019-04-21T09:16:27.946Z,28.52
2019-04-21T09:18:51.299Z,30.70
2019-04-21T09:21:31.362Z,33.90
2019-04-21T09:24:00.620Z,34.00
2019-04-21T09:26:29.529Z,33.98
2019-04-21T09:28:54.488Z,31.62
2019-04-21T09:31:12.300Z,33.55
2019-04-21T09:33:47.154Z,37.83
2019-04-21T09:36:16.341Z,34.08
2019-04-21T09:38:45.692Z,33.25
2019-04-21T09:41:17.598Z,30.82
2019-04-21T09:43:48.386Z,31.48
2019-04-21T09:46:14.274Z,31.85
2019-04-21T09:48:51.867Z,35.25
2019-04-21T09:51:13.820Z,34.35
2019-04-21T09:53:47.334Z,26.42
2019-04-21T09:56:16.709Z,31.60
2019-04-21T09:58:49.459Z,30.77
2019-04-21T10:01:22.830Z,33.63
2019-04-21T10:03:53.294Z,36.23
2019-04-21T10:06:19.548Z,32.53
2019-04-21T10:08:55.730Z,32.73
2019-04-21T10:11:20.757Z,34.15
2019-04-21T10:13:50.599Z,33.45
2019-04-21T10:16:30.231Z,31.65
2019-04-21T10:18:59.082Z,37.28
2019-04-21T10:21:29.301Z,33.88
2019-04-21T10:23:58.328Z,32.33
2019-04-21T10:26:28.468Z,32.45
2019-04-21T10:29:04.345Z,27.70
2019-04-21T10:31:28.939Z,25.68
2019-04-21T10:33:58.848Z,29.55
2019-04-21T10:36:28.948Z,26.73
2019-04-21T10:39:00.400Z,32.48
2019-04-21T10:41:29.636Z,26.70
2019-04-21T10:43:59.048Z,25.32
2019-04-21T10:46:28.891Z,26.10
2019-04-21T10:48:58.842Z,26.75
2019-04-21T10:51:28.779Z,31.23
2019-04-21T10:53:57.947Z,28.95
2019-04-21T10:56:32.642Z,29.48
2019-04-21T10:58:58.379Z,30.55
2019-04-21T11:01:27.642Z,27.93
2019-04-21T11:04:07.527Z,28.67
2019-04-21T11:06:34.799Z,25.68
2019-04-21T11:09:06.954Z,30.20
2019-04-21T11:11:37.571Z,34.35
2019-04-21T11:14:06.641Z,33.90
2019-04-21T11:16:35.461Z,33.05
2019-04-21T11:19:04.535Z,35.63
2019-04-21T11:21:34.514Z,35.13
2019-04-21T11:24:03.988Z,35.90
2019-04-21T11:26:33.813Z,41.10
2019-04-21T11:29:03.154Z,35.75
2019-04-21T11:31:33.420Z,37.85
2019-04-21T11:34:03.004Z,38.17
2019-04-21T11:36:33.173Z,35.30
2019-04-21T11:39:31.712Z,35.95
2019-04-21T11:41:52.124Z,36.65
2019-04-21T11:44:23.146Z,33.48
2019-04-21T11:46:52.160Z,35.48
2019-04-21T11:49:22.330Z,35.15
2019-04-21T11:51:51.301Z,35.23
2019-04-21T11:54:20.111Z,38.83
2019-04-21T11:56:50.655Z,34.67
2019-04-21T11:59:19.641Z,32.98
2019-04-21T12:01:49.690Z,28.65
2019-04-21T12:04:18.625Z,30.08
2019-04-21T12:06:49.152Z,32.13
2019-04-21T12:09:18.931Z,33.42
2019-04-21T12:11:47.932Z,32.88
2019-04-21T12:14:16.745Z,28.85
2019-04-21T12:16:46.666Z,27.70
2019-04-21T12:19:16.703Z,30.97
2019-04-21T12:21:57.322Z,26.55
2019-04-21T12:24:17.483Z,25.35
2019-04-21T12:26:46.435Z,28.12
2019-04-21T12:29:16.551Z,32.83
2019-04-21T12:32:03.570Z,31.50
2019-04-21T12:34:34.174Z,32.65
2019-04-21T12:37:04.508Z,32.98
2019-04-21T12:39:34.770Z,29.18
2019-04-21T12:42:04.741Z,25.12
2019-04-21T12:44:33.665Z,28.90
2019-04-21T12:47:03.633Z,31.30
2019-04-21T12:49:33.792Z,29.10
2019-04-21T12:52:03.740Z,28.83
2019-04-21T12:54:33.377Z,29.85
2019-04-21T12:57:03.357Z,32.35
2019-04-21T12:59:34.542Z,30.90
2019-04-21T13:02:04.518Z,31.85
2019-04-21T13:04:33.623Z,33.33
2019-04-21T13:07:03.694Z,31.42
2019-04-21T13:09:34.274Z,33.15
2019-04-21T13:12:03.087Z,29.37
2019-04-21T13:14:32.041Z,33.75
2019-04-21T13:17:01.418Z,25.50
2019-04-21T13:19:31.406Z,29.55
2019-04-21T13:22:01.565Z,31.35
2019-04-21T13:24:31.792Z,30.10
2019-04-21T13:27:03.251Z,28.38
2019-04-21T13:29:32.290Z,26.15
2019-04-21T13:32:04.706Z,28.27
2019-04-21T13:34:32.083Z,27.30
2019-04-21T13:37:01.555Z,30.82
2019-04-21T13:40:03.444Z,28.07
2019-04-21T13:42:16.496Z,25.77
2019-04-21T13:44:39.092Z,30.05
2019-04-21T13:47:08.132Z,29.32
2019-04-21T13:49:37.135Z,27.42
2019-04-21T13:52:06.731Z,29.35
2019-04-21T13:54:35.775Z,30.17
2019-04-21T13:57:04.947Z,27.40
2019-04-21T13:59:34.320Z,32.13
2019-04-21T14:02:04.758Z,37.00
2019-04-21T14:04:33.830Z,34.78
2019-04-21T14:07:02.624Z,31.90
2019-04-21T14:09:42.880Z,29.07
2019-04-21T14:12:03.313Z,31.33
2019-04-21T14:14:32.811Z,29.75
2019-04-21T14:17:03.904Z,31.55
2019-04-21T14:19:33.216Z,27.73
2019-04-21T14:22:03.324Z,28.95
2019-04-21T14:24:32.893Z,31.62
2019-04-21T14:27:02.690Z,29.25
2019-04-21T14:29:33.204Z,30.15
2019-04-21T14:32:02.343Z,28.10
2019-04-21T14:34:32.163Z,27.48
2019-04-21T14:37:02.250Z,26.55
2019-04-21T14:39:32.484Z,27.15
2019-04-21T14:42:02.248Z,28.00
2019-04-21T14:44:31.173Z,26.60
2019-04-21T14:47:05.021Z,29.30
2019-04-21T14:49:35.541Z,29.05
2019-04-21T14:52:08.734Z,26.65
2019-04-21T14:54:42.704Z,26.68
2019-04-21T14:57:11.710Z,24.92
2019-04-21T14:59:40.528Z,27.62
2019-04-21T15:02:09.851Z,28.02
2019-04-21T15:04:39.771Z,25.62
2019-04-21T15:07:09.698Z,24.25
2019-04-21T15:09:39.674Z,26.48
2019-04-21T15:12:10.050Z,24.77
2019-04-21T15:14:40.258Z,26.40
2019-04-21T15:17:09.269Z,20.52
2019-04-21T15:19:38.374Z,29.50
2019-04-21T15:22:08.242Z,28.35
2019-04-21T15:24:38.307Z,23.85
2019-04-21T15:27:07.322Z,25.00
2019-04-21T15:29:36.126Z,26.50
2019-04-21T15:32:06.420Z,28.70
2019-04-21T15:34:36.067Z,27.27
2019-04-21T15:37:06.145Z,27.00
2019-04-21T15:39:35.047Z,26.93
2019-04-21T15:42:03.869Z,25.00
2019-04-21T15:44:32.749Z,25.82
2019-04-21T15:47:04.021Z,22.37
2019-04-21T15:49:58.946Z,24.52
2019-04-21T15:52:27.739Z,24.72
2019-04-21T15:54:58.855Z,25.60
2019-04-21T15:57:33.327Z,28.57
2019-04-21T16:00:04.648Z,28.83
2019-04-21T16:02:48.502Z,34.50
2019-04-21T16:05:19.093Z,29.23
2019-04-21T16:07:49.877Z,29.63
2019-04-21T16:10:33.641Z,29.52
2019-04-21T16:12:52.154Z,31.75
2019-04-21T16:15:22.777Z,32.65
2019-04-21T16:17:53.209Z,31.55
2019-04-21T16:20:23.948Z,30.85
2019-04-21T16:22:52.949Z,28.10
2019-04-21T16:25:23.155Z,28.10
2019-04-21T16:27:53.263Z,29.35
2019-04-21T16:30:25.785Z,30.92
2019-04-21T16:32:54.823Z,36.00
2019-04-21T16:35:25.228Z,35.88
2019-04-21T16:37:57.281Z,34.53
2019-04-21T16:40:25.481Z,36.38
2019-04-21T16:42:54.479Z,35.55
2019-04-21T16:45:25.288Z,31.95
2019-04-21T16:47:55.612Z,32.03
2019-04-21T16:50:27.906Z,29.15
2019-04-21T16:53:16.360Z,28.57
2019-04-21T16:55:59.411Z,26.68
2019-04-21T16:58:36.696Z,26.45
2019-04-21T17:01:15.980Z,29.42
2019-04-21T17:03:42.464Z,24.85
2019-04-21T17:06:11.491Z,33.60
2019-04-21T17:08:40.914Z,25.85
2019-04-21T17:11:17.266Z,26.62
2019-04-21T17:13:42.035Z,26.20
2019-04-21T17:16:38.684Z,24.85
2019-04-21T17:18:53.682Z,29.67
2019-04-21T17:21:13.234Z,25.20
2019-04-21T17:23:42.432Z,25.50
2019-04-21T17:26:11.269Z,22.65
2019-04-21T17:28:40.713Z,24.52
2019-04-21T17:31:10.833Z,30.90
2019-04-21T17:33:41.280Z,31.33
2019-04-21T17:36:11.926Z,24.70
2019-04-21T17:38:41.875Z,25.00
2019-04-21T17:41:21.831Z,29.42
2019-04-21T17:43:41.646Z,31.33
2019-04-21T17:46:13.667Z,31.40
2019-04-21T17:48:41.015Z,27.62
2019-04-21T17:51:11.871Z,24.67
2019-04-21T17:53:55.088Z,24.25
2019-04-21T17:56:48.056Z,22.73
2019-04-21T17:59:17.692Z,25.57
2019-04-21T18:01:42.373Z,26.25
2019-04-21T18:04:15.252Z,28.50
2019-04-21T18:06:59.379Z,28.73
2019-04-21T18:09:40.117Z,27.10
2019-04-21T18:12:06.826Z,25.10
2019-04-21T18:14:15.943Z,24.32
2019-04-21T18:16:48.592Z,26.00
2019-04-21T18:19:20.564Z,19.92
2019-04-21T18:22:08.548Z,28.90
2019-04-21T18:24:48.082Z,25.25
2019-04-21T18:27:11.052Z,29.00
2019-04-21T18:29:40.098Z,27.00
2019-04-21T18:32:10.488Z,27.62
2019-04-21T18:35:00.414Z,23.77
2019-04-21T18:37:39.899Z,22.77
2019-04-21T18:40:14.995Z,20.65
2019-04-21T18:42:57.429Z,21.55
2019-04-21T18:45:50.273Z,17.92
2019-04-21T18:48:21.922Z,22.48
2019-04-21T18:51:03.001Z,21.20
2019-04-21T18:53:46.242Z,22.30
2019-04-21T18:56:06.497Z,20.32
2019-04-21T18:58:36.084Z,19.30
2019-04-21T19:01:13.990Z,20.72
2019-04-21T19:03:43.092Z,18.23
2019-04-21T19:06:12.860Z,19.12
2019-04-21T19:08:59.992Z,16.55
2019-04-21T19:11:28.209Z,19.35
2019-04-21T19:14:20.955Z,17.85
2019-04-21T19:16:42.870Z,19.65
2019-04-21T19:19:42.052Z,22.15
2019-04-21T19:21:40.290Z,20.80
2019-04-21T19:26:52.443Z,27.55
2019-04-21T19:29:24.369Z,21.77
2019-04-21T19:31:53.110Z,23.18
2019-04-21T19:34:08.163Z,18.85
2019-04-21T19:36:32.710Z,20.92
2019-04-21T19:39:08.257Z,24.60
2019-04-21T19:41:48.534Z,21.73
2019-04-21T19:44:24.804Z,17.73
2019-04-21T19:46:49.166Z,19.40
2019-04-21T19:49:28.026Z,18.60
2019-04-21T19:51:46.292Z,14.73
2019-04-21T19:54:18.723Z,20.17
2019-04-21T19:56:38.559Z,22.65
2019-04-21T19:59:14.055Z,19.23
2019-04-21T20:01:39.387Z,20.02
2019-04-21T20:04:08.544Z,16.20
2019-04-21T20:06:47.572Z,16.60
2019-04-21T20:09:28.393Z,18.05
2019-04-21T20:11:53.798Z,20.48
2019-04-21T20:16:54.741Z,16.52
2019-04-21T20:19:12.612Z,16.32
2019-04-21T20:21:41.308Z,17.73
2019-04-21T20:24:14.487Z,21.37
2019-04-21T20:26:44.074Z,16.87
2019-04-21T20:29:27.985Z,15.18
2019-04-21T20:31:54.379Z,16.00
2019-04-21T20:34:34.279Z,17.42
2019-04-21T20:37:02.048Z,23.70
2019-04-21T20:39:21.285Z,17.10
2019-04-21T20:41:56.251Z,16.62
2019-04-21T20:44:30.034Z,16.17
2019-04-21T20:46:59.747Z,23.80
2019-04-21T20:49:27.019Z,19.57
2019-04-21T20:52:10.785Z,20.10
2019-04-21T20:54:37.067Z,17.55
2019-04-21T20:57:06.130Z,20.43
2019-04-21T20:59:32.705Z,17.07
2019-04-21T21:02:05.624Z,20.57
2019-04-21T21:04:30.095Z,19.50
2019-04-21T21:07:16.322Z,18.37
2019-04-21T21:09:33.964Z,19.60
2019-04-21T21:12:22.363Z,15.32
2019-04-21T21:14:36.460Z,15.55
2019-04-21T21:17:19.953Z,15.18
2019-04-21T21:19:45.738Z,15.20
2019-04-21T21:22:03.974Z,18.73
2019-04-21T21:24:55.831Z,20.15
2019-04-21T21:27:17.671Z,20.92
2019-04-21T21:29:45.163Z,18.85
2019-04-21T21:34:47.260Z,17.75
2019-04-21T21:37:26.407Z,20.88
2019-04-21T21:39:55.113Z,14.23
2019-04-21T21:42:02.751Z,19.23
2019-04-21T21:44:31.901Z,15.90
2019-04-21T21:47:17.164Z,13.35
2019-04-21T21:49:47.068Z,16.75
2019-04-21T21:52:09.312Z,14.40
2019-04-21T21:54:31.883Z,17.02
2019-04-21T21:57:00.937Z,15.98
2019-04-21T21:59:33.101Z,18.65
2019-04-21T22:02:02.255Z,16.70
2019-04-21T22:04:35.500Z,14.13
2019-04-21T22:07:09.234Z,19.60
2019-04-21T22:09:32.878Z,13.68
2019-04-21T22:12:06.265Z,16.87
2019-04-21T22:14:39.111Z,14.68
2019-04-21T22:17:20.337Z,18.42
2019-04-21T22:19:58.189Z,14.25
2019-04-21T22:22:17.837Z,15.93
2019-04-21T22:24:49.754Z,15.13
2019-04-21T22:27:05.354Z,16.12
2019-04-21T22:29:40.805Z,15.95
2019-04-21T22:32:12.670Z,20.08
2019-04-21T22:34:44.031Z,16.00
2019-04-21T22:37:21.651Z,15.30
2019-04-21T22:39:56.925Z,13.28
2019-04-21T22:42:15.715Z,15.40
2019-04-21T22:44:38.610Z,14.10
2019-04-21T22:47:16.779Z,17.45
2019-04-21T22:49:38.764Z,14.80
2019-04-21T22:52:13.536Z,17.37
2019-04-21T22:54:42.753Z,15.78
2019-04-21T22:57:14.764Z,14.53
2019-04-21T22:59:40.565Z,12.23
2019-04-21T23:02:18.296Z,15.18
2019-04-21T23:04:46.188Z,18.02
2019-04-21T23:07:14.030Z,13.68
2019-04-21T23:09:40.987Z,14.15
2019-04-21T23:12:13.600Z,13.65
2019-04-21T23:14:48.791Z,14.68
2019-04-21T23:17:32.536Z,12.47
2019-04-21T23:20:03.231Z,11.73
2019-04-21T23:22:34.063Z,10.75
2019-04-21T23:25:03.372Z,16.67
2019-04-21T23:27:34.396Z,13.00
2019-04-21T23:30:11.669Z,12.78
2019-04-21T23:32:29.501Z,16.40
2019-04-21T23:34:47.299Z,12.33
2019-04-21T23:37:20.313Z,13.03
2019-04-21T23:39:47.702Z,13.65
2019-04-21T23:42:25.904Z,12.95
2019-04-21T23:44:52.407Z,13.90
2019-04-21T23:47:31.928Z,13.62
2019-04-21T23:49:57.656Z,13.75
2019-04-21T23:52:19.856Z,15.65
2019-04-21T23:54:49.304Z,12.70
2019-04-21T23:57:28.766Z,15.05
2019-04-21T23:59:53.452Z,14.75
